sensor_id;sensor_type;location;lat;lon;timestamp;pressure;altitude;pressure_sealevel;temperature;humidity
11413;BME280;5762;43.256;26.960;2023-03-20T00:00:51;100216.14;;;3.12;100.00
11413;BME280;5762;43.256;26.960;2023-03-20T00:03:20;100214.63;;;3.16;100.00
11413;BME280;5762;43.256;26.960;2023-03-20T00:05:49;100217.30;;;3.16;100.00
11413;BME280;5762;43.256;26.960;2023-03-20T00:08:17;100212.23;;;3.17;100.00
11413;BME280;5762;43.256;26.960;2023-03-20T00:10:46;100220.02;;;3.19;100.00
11413;BME280;5762;43.256;26.960;2023-03-20T00:13:21;100210.37;;;3.18;100.00
11413;BME280;5762;43.256;26.960;2023-03-20T00:15:44;100218.73;;;3.21;100.00
11413;BME280;5762;43.256;26.960;2023-03-20T00:18:21;100216.69;;;3.26;100.00
11413;BME280;5762;43.256;26.960;2023-03-20T00:20:46;100206.17;;;3.22;100.00
11413;BME280;5762;43.256;26.960;2023-03-20T00:23:14;100208.14;;;3.26;100.00
11413;BME280;5762;43.256;26.960;2023-03-20T00:25:45;100208.42;;;3.27;100.00
11413;BME280;5762;43.256;26.960;2023-03-20T00:30:58;100201.11;;;3.23;100.00
11413;BME280;5762;43.256;26.960;2023-03-20T00:33:26;100204.65;;;3.26;100.00
11413;BME280;5762;43.256;26.960;2023-03-20T00:35:56;100204.52;;;3.32;100.00
11413;BME280;5762;43.256;26.960;2023-03-20T00:38:24;100202.63;;;3.47;100.00
11413;BME280;5762;43.256;26.960;2023-03-20T00:40:53;100196.03;;;3.52;100.00
11413;BME280;5762;43.256;26.960;2023-03-20T00:43:22;100202.81;;;3.57;100.00
11413;BME280;5762;43.256;26.960;2023-03-20T00:45:50;100202.29;;;3.58;100.00
11413;BME280;5762;43.256;26.960;2023-03-20T00:48:18;100205.83;;;3.61;100.00
11413;BME280;5762;43.256;26.960;2023-03-20T00:50:48;100198.32;;;3.60;100.00
11413;BME280;5762;43.256;26.960;2023-03-20T00:53:16;100200.76;;;3.62;100.00
11413;BME280;5762;43.256;26.960;2023-03-20T00:55:45;100198.32;;;3.60;100.00
11413;BME280;5762;43.256;26.960;2023-03-20T00:58:14;100200.23;;;3.62;100.00
11413;BME280;5762;43.256;26.960;2023-03-20T01:00:42;100205.24;;;3.73;100.00
11413;BME280;5762;43.256;26.960;2023-03-20T01:03:17;100195.44;;;3.79;100.00
11413;BME280;5762;43.256;26.960;2023-03-20T01:05:46;100187.42;;;3.81;100.00
11413;BME280;5762;43.256;26.960;2023-03-20T01:08:19;100195.30;;;3.88;100.00
11413;BME280;5762;43.256;26.960;2023-03-20T01:10:48;100186.17;;;3.86;100.00
11413;BME280;5762;43.256;26.960;2023-03-20T01:13:28;100185.92;;;3.88;100.00
11413;BME280;5762;43.256;26.960;2023-03-20T01:15:53;100176.03;;;3.88;100.00
11413;BME280;5762;43.256;26.960;2023-03-20T01:18:22;100175.78;;;3.90;100.00
11413;BME280;5762;43.256;26.960;2023-03-20T01:20:50;100180.05;;;3.88;100.00
11413;BME280;5762;43.256;26.960;2023-03-20T01:23:19;100182.61;;;3.97;100.00
11413;BME280;5762;43.256;26.960;2023-03-20T01:25:48;100176.97;;;3.96;100.00
11413;BME280;5762;43.256;26.960;2023-03-20T01:28:20;100184.72;;;3.95;100.00
11413;BME280;5762;43.256;26.960;2023-03-20T01:30:49;100186.02;;;3.93;100.00
11413;BME280;5762;43.256;26.960;2023-03-20T01:33:18;100180.53;;;3.85;100.00
11413;BME280;5762;43.256;26.960;2023-03-20T01:35:47;100179.47;;;3.86;100.00
11413;BME280;5762;43.256;26.960;2023-03-20T01:38:19;100174.16;;;3.89;100.00
11413;BME280;5762;43.256;26.960;2023-03-20T01:40:50;100173.06;;;3.87;100.00
11413;BME280;5762;43.256;26.960;2023-03-20T01:43:21;100170.48;;;3.92;100.00
11413;BME280;5762;43.256;26.960;2023-03-20T01:45:58;100168.41;;;3.97;100.00
11413;BME280;5762;43.256;26.960;2023-03-20T01:48:26;100171.57;;;3.94;100.00
11413;BME280;5762;43.256;26.960;2023-03-20T01:50:55;100163.78;;;3.92;100.00
11413;BME280;5762;43.256;26.960;2023-03-20T01:53:24;100160.98;;;3.85;100.00
11413;BME280;5762;43.256;26.960;2023-03-20T01:55:54;100159.44;;;3.89;100.00
11413;BME280;5762;43.256;26.960;2023-03-20T01:58:24;100157.86;;;3.90;100.00
11413;BME280;5762;43.256;26.960;2023-03-20T02:00:52;100156.63;;;3.81;100.00
11413;BME280;5762;43.256;26.960;2023-03-20T02:03:21;100165.70;;;3.78;100.00
11413;BME280;5762;43.256;26.960;2023-03-20T02:05:51;100158.38;;;3.90;100.00
11413;BME280;5762;43.256;26.960;2023-03-20T02:10:52;100142.95;;;3.78;100.00
11413;BME280;5762;43.256;26.960;2023-03-20T02:13:21;100149.17;;;3.83;100.00
11413;BME280;5762;43.256;26.960;2023-03-20T02:15:57;100152.91;;;3.82;100.00
11413;BME280;5762;43.256;26.960;2023-03-20T02:18:25;100148.34;;;3.80;100.00
11413;BME280;5762;43.256;26.960;2023-03-20T02:21:16;100148.92;;;3.85;100.00
11413;BME280;5762;43.256;26.960;2023-03-20T02:24:02;100153.33;;;3.74;100.00
11413;BME280;5762;43.256;26.960;2023-03-20T02:29:34;100142.25;;;3.68;100.00
11413;BME280;5762;43.256;26.960;2023-03-20T02:39:50;100129.73;;;3.71;100.00
11413;BME280;5762;43.256;26.960;2023-03-20T02:42:20;100138.08;;;3.75;100.00
11413;BME280;5762;43.256;26.960;2023-03-20T02:44:52;100141.66;;;3.80;100.00
11413;BME280;5762;43.256;26.960;2023-03-20T02:49:51;100146.01;;;3.86;100.00
11413;BME280;5762;43.256;26.960;2023-03-20T02:52:20;100144.27;;;3.94;100.00
11413;BME280;5762;43.256;26.960;2023-03-20T02:54:50;100133.30;;;3.77;100.00
11413;BME280;5762;43.256;26.960;2023-03-20T02:57:19;100142.99;;;3.80;100.00
11413;BME280;5762;43.256;26.960;2023-03-20T02:59:50;100141.57;;;3.75;100.00
11413;BME280;5762;43.256;26.960;2023-03-20T03:02:17;100142.70;;;3.79;100.00
11413;BME280;5762;43.256;26.960;2023-03-20T03:04:53;100141.67;;;3.83;100.00
11413;BME280;5762;43.256;26.960;2023-03-20T03:07:23;100143.05;;;3.85;100.00
11413;BME280;5762;43.256;26.960;2023-03-20T03:10:10;100141.95;;;3.84;100.00
11413;BME280;5762;43.256;26.960;2023-03-20T03:12:34;100146.66;;;3.93;100.00
11413;BME280;5762;43.256;26.960;2023-03-20T03:15:12;100147.23;;;3.95;100.00
11413;BME280;5762;43.256;26.960;2023-03-20T03:17:39;100148.56;;;3.95;100.00
11413;BME280;5762;43.256;26.960;2023-03-20T03:20:13;100148.36;;;3.99;100.00
11413;BME280;5762;43.256;26.960;2023-03-20T03:22:38;100149.26;;;4.05;100.00
11413;BME280;5762;43.256;26.960;2023-03-20T03:25:08;100145.45;;;4.01;100.00
11413;BME280;5762;43.256;26.960;2023-03-20T03:27:37;100149.26;;;4.05;100.00
11413;BME280;5762;43.256;26.960;2023-03-20T03:30:11;100147.95;;;4.08;100.00
11413;BME280;5762;43.256;26.960;2023-03-20T03:32:44;100149.41;;;4.15;100.00
11413;BME280;5762;43.256;26.960;2023-03-20T03:35:09;100142.84;;;4.06;100.00
11413;BME280;5762;43.256;26.960;2023-03-20T03:45:45;100135.87;;;4.05;100.00
11413;BME280;5762;43.256;26.960;2023-03-20T03:48:13;100136.64;;;4.03;100.00
11413;BME280;5762;43.256;26.960;2023-03-20T03:50:44;100135.46;;;3.96;100.00
11413;BME280;5762;43.256;26.960;2023-03-20T03:53:11;100141.63;;;3.97;100.00
11413;BME280;5762;43.256;26.960;2023-03-20T03:55:42;100139.84;;;3.86;100.00
11413;BME280;5762;43.256;26.960;2023-03-20T04:00:40;100137.73;;;4.04;100.00
11413;BME280;5762;43.256;26.960;2023-03-20T04:03:09;100148.69;;;4.03;100.00
11413;BME280;5762;43.256;26.960;2023-03-20T04:05:40;100144.11;;;4.01;100.00
11413;BME280;5762;43.256;26.960;2023-03-20T04:08:07;100143.09;;;4.04;100.00
11413;BME280;5762;43.256;26.960;2023-03-20T04:10:36;100143.58;;;4.01;100.00
11413;BME280;5762;43.256;26.960;2023-03-20T04:13:04;100146.98;;;3.97;100.00
11413;BME280;5762;43.256;26.960;2023-03-20T04:15:33;100142.44;;;3.97;100.00
11413;BME280;5762;43.256;26.960;2023-03-20T04:18:03;100141.75;;;3.88;100.00
11413;BME280;5762;43.256;26.960;2023-03-20T04:20:31;100144.14;;;3.87;100.00
11413;BME280;5762;43.256;26.960;2023-03-20T04:23:00;100142.84;;;3.89;100.00
11413;BME280;5762;43.256;26.960;2023-03-20T04:25:29;100140.25;;;3.94;100.00
11413;BME280;5762;43.256;26.960;2023-03-20T04:27:58;100134.89;;;3.94;100.00
11413;BME280;5762;43.256;26.960;2023-03-20T04:30:32;100142.69;;;3.96;100.00
11413;BME280;5762;43.256;26.960;2023-03-20T04:32:56;100133.95;;;3.86;100.00
11413;BME280;5762;43.256;26.960;2023-03-20T04:37:02;122795.64;;;4.00;100.00
11413;BME280;5762;43.256;26.960;2023-03-20T04:39:31;100139.28;;;4.00;100.00
11413;BME280;5762;43.256;26.960;2023-03-20T04:42:01;100138.46;;;3.83;100.00
11413;BME280;5762;43.256;26.960;2023-03-20T04:44:30;100142.16;;;3.96;100.00
11413;BME280;5762;43.256;26.960;2023-03-20T04:47:01;100147.14;;;3.90;100.00
11413;BME280;5762;43.256;26.960;2023-03-20T04:49:30;100147.02;;;3.99;100.00
11413;BME280;5762;43.256;26.960;2023-03-20T04:51:58;100139.20;;;3.95;100.00
11413;BME280;5762;43.256;26.960;2023-03-20T04:54:26;100142.27;;;3.87;100.00
11413;BME280;5762;43.256;26.960;2023-03-20T04:56:55;100148.92;;;3.85;100.00
11413;BME280;5762;43.256;26.960;2023-03-20T05:07:18;122795.64;;;-144.51;100.00
11413;BME280;5762;43.256;26.960;2023-03-20T05:11:08;122795.64;;;3.82;100.00
11413;BME280;5762;43.256;26.960;2023-03-20T05:13:37;100142.19;;;3.82;100.00
11413;BME280;5762;43.256;26.960;2023-03-20T05:16:06;100142.19;;;3.82;100.00
11413;BME280;5762;43.256;26.960;2023-03-20T05:18:35;100151.84;;;3.81;100.00
11413;BME280;5762;43.256;26.960;2023-03-20T05:21:03;100152.56;;;3.76;100.00
11413;BME280;5762;43.256;26.960;2023-03-20T05:23:33;100154.39;;;3.73;100.00
11413;BME280;5762;43.256;26.960;2023-03-20T05:26:01;100164.23;;;3.70;100.00
11413;BME280;5762;43.256;26.960;2023-03-20T05:28:30;100155.58;;;3.82;100.00
11413;BME280;5762;43.256;26.960;2023-03-20T05:30:58;100163.13;;;3.85;100.00
11413;BME280;5762;43.256;26.960;2023-03-20T05:33:27;100166.98;;;3.92;100.00
11413;BME280;5762;43.256;26.960;2023-03-20T05:35:57;100173.92;;;3.90;100.00
11413;BME280;5762;43.256;26.960;2023-03-20T05:38:25;100173.92;;;3.90;100.00
11413;BME280;5762;43.256;26.960;2023-03-20T05:40:55;100180.17;;;3.96;100.00
11413;BME280;5762;43.256;26.960;2023-03-20T05:43:23;100182.04;;;3.95;100.00
11413;BME280;5762;43.256;26.960;2023-03-20T05:48:28;100185.66;;;4.03;100.00
11413;BME280;5762;43.256;26.960;2023-03-20T05:50:57;100195.28;;;4.21;100.00
11413;BME280;5762;43.256;26.960;2023-03-20T05:53:26;100193.74;;;4.25;100.00
11413;BME280;5762;43.256;26.960;2023-03-20T05:55:55;100197.44;;;4.22;100.00
11413;BME280;5762;43.256;26.960;2023-03-20T05:58:23;100197.19;;;4.23;100.00
11413;BME280;5762;43.256;26.960;2023-03-20T06:00:52;100197.03;;;4.30;100.00
11413;BME280;5762;43.256;26.960;2023-03-20T06:03:20;100195.11;;;4.45;100.00
11413;BME280;5762;43.256;26.960;2023-03-20T06:05:49;100197.27;;;4.45;100.00
11413;BME280;5762;43.256;26.960;2023-03-20T06:08:18;100197.59;;;4.51;100.00
11413;BME280;5762;43.256;26.960;2023-03-20T06:10:49;100195.80;;;4.37;100.00
11413;BME280;5762;43.256;26.960;2023-03-20T06:13:21;100197.11;;;4.35;100.00
11413;BME280;5762;43.256;26.960;2023-03-20T06:15:46;100195.00;;;4.37;100.00
11413;BME280;5762;43.256;26.960;2023-03-20T06:18:14;100199.94;;;4.45;100.00
11413;BME280;5762;43.256;26.960;2023-03-20T06:20:43;100197.91;;;4.55;100.00
11413;BME280;5762;43.256;26.960;2023-03-20T06:23:12;100197.87;;;4.52;100.00
11413;BME280;5762;43.256;26.960;2023-03-20T06:25:41;100192.38;;;4.61;100.00
11413;BME280;5762;43.256;26.960;2023-03-20T06:28:10;100191.05;;;4.42;100.00
11413;BME280;5762;43.256;26.960;2023-03-20T06:30:39;100193.90;;;4.35;100.00
11413;BME280;5762;43.256;26.960;2023-03-20T06:33:08;100197.66;;;4.56;100.00
11413;BME280;5762;43.256;26.960;2023-03-20T06:35:36;100194.42;;;4.74;100.00
11413;BME280;5762;43.256;26.960;2023-03-20T06:38:04;100200.98;;;4.85;100.00
11413;BME280;5762;43.256;26.960;2023-03-20T06:40:33;100196.89;;;4.78;100.00
11413;BME280;5762;43.256;26.960;2023-03-20T06:43:02;100197.45;;;4.80;100.00
11413;BME280;5762;43.256;26.960;2023-03-20T06:45:31;100192.02;;;4.75;100.00
11413;BME280;5762;43.256;26.960;2023-03-20T06:47:59;100194.95;;;4.73;100.00
11413;BME280;5762;43.256;26.960;2023-03-20T06:50:27;100191.74;;;4.74;100.00
11413;BME280;5762;43.256;26.960;2023-03-20T06:52:56;100195.55;;;4.78;100.00
11413;BME280;5762;43.256;26.960;2023-03-20T06:55:24;100192.52;;;4.71;100.00
11413;BME280;5762;43.256;26.960;2023-03-20T06:57:53;100190.19;;;4.58;100.00
11413;BME280;5762;43.256;26.960;2023-03-20T07:00:23;100198.92;;;4.51;100.00
11413;BME280;5762;43.256;26.960;2023-03-20T07:02:52;100194.28;;;4.83;100.00
11413;BME280;5762;43.256;26.960;2023-03-20T07:05:21;100199.11;;;4.86;100.00
11413;BME280;5762;43.256;26.960;2023-03-20T07:07:50;100196.91;;;5.02;100.00
11413;BME280;5762;43.256;26.960;2023-03-20T07:10:18;100195.73;;;5.15;100.00
11413;BME280;5762;43.256;26.960;2023-03-20T07:12:47;100204.14;;;5.26;100.00
11413;BME280;5762;43.256;26.960;2023-03-20T07:15:16;100201.99;;;5.25;100.00
11413;BME280;5762;43.256;26.960;2023-03-20T07:17:45;100199.66;;;5.31;100.00
11413;BME280;5762;43.256;26.960;2023-03-20T07:20:14;100200.77;;;5.35;100.00
11413;BME280;5762;43.256;26.960;2023-03-20T07:22:43;100196.61;;;5.47;100.00
11413;BME280;5762;43.256;26.960;2023-03-20T07:25:12;100196.16;;;5.58;100.00
11413;BME280;5762;43.256;26.960;2023-03-20T07:27:41;100196.91;;;5.51;100.00
11413;BME280;5762;43.256;26.960;2023-03-20T07:30:10;100192.32;;;5.24;100.00
11413;BME280;5762;43.256;26.960;2023-03-20T07:32:39;100159.31;;;5.24;100.00
11413;BME280;5762;43.256;26.960;2023-03-20T07:35:08;100186.59;;;5.40;100.00
11413;BME280;5762;43.256;26.960;2023-03-20T07:37:36;100193.00;;;5.36;100.00
11413;BME280;5762;43.256;26.960;2023-03-20T07:40:05;100188.86;;;5.26;100.00
11413;BME280;5762;43.256;26.960;2023-03-20T07:42:34;100190.40;;;5.44;100.00
11413;BME280;5762;43.256;26.960;2023-03-20T07:45:03;100188.36;;;5.54;100.00
11413;BME280;5762;43.256;26.960;2023-03-20T07:47:35;100193.44;;;5.55;100.00
11413;BME280;5762;43.256;26.960;2023-03-20T07:50:03;100194.34;;;5.36;100.00
11413;BME280;5762;43.256;26.960;2023-03-20T07:52:32;100195.45;;;5.67;100.00
11413;BME280;5762;43.256;26.960;2023-03-20T07:55:00;100198.77;;;5.77;100.00
11413;BME280;5762;43.256;26.960;2023-03-20T07:57:28;100204.81;;;5.92;100.00
11413;BME280;5762;43.256;26.960;2023-03-20T07:59:57;100203.00;;;6.00;100.00
11413;BME280;5762;43.256;26.960;2023-03-20T08:02:26;100197.19;;;5.81;100.00
11413;BME280;5762;43.256;26.960;2023-03-20T08:04:55;100170.70;;;5.63;100.00
11413;BME280;5762;43.256;26.960;2023-03-20T08:07:24;100208.48;;;6.13;100.00
11413;BME280;5762;43.256;26.960;2023-03-20T08:09:52;100209.92;;;6.28;100.00
11413;BME280;5762;43.256;26.960;2023-03-20T08:12:21;100203.48;;;6.29;100.00
11413;BME280;5762;43.256;26.960;2023-03-20T08:14:56;100205.34;;;6.26;100.00
11413;BME280;5762;43.256;26.960;2023-03-20T08:17:24;100211.13;;;6.45;100.00
11413;BME280;5762;43.256;26.960;2023-03-20T08:19:53;100206.32;;;6.49;100.00
11413;BME280;5762;43.256;26.960;2023-03-20T08:22:21;100199.34;;;6.51;100.00
11413;BME280;5762;43.256;26.960;2023-03-20T08:24:50;100195.94;;;6.70;100.00
11413;BME280;5762;43.256;26.960;2023-03-20T08:27:18;100200.58;;;6.83;100.00
11413;BME280;5762;43.256;26.960;2023-03-20T08:29:46;100193.56;;;6.79;100.00
11413;BME280;5762;43.256;26.960;2023-03-20T08:32:15;100190.65;;;6.93;100.00
11413;BME280;5762;43.256;26.960;2023-03-20T08:34:44;100186.39;;;7.05;100.00
11413;BME280;5762;43.256;26.960;2023-03-20T08:37:12;100185.13;;;7.23;100.00
11413;BME280;5762;43.256;26.960;2023-03-20T08:39:40;100186.19;;;7.29;100.00
11413;BME280;5762;43.256;26.960;2023-03-20T08:42:08;100189.45;;;7.36;100.00
11413;BME280;5762;43.256;26.960;2023-03-20T08:44:37;100176.30;;;7.53;100.00
11413;BME280;5762;43.256;26.960;2023-03-20T08:47:06;100173.82;;;7.33;100.00
11413;BME280;5762;43.256;26.960;2023-03-20T08:49:34;100170.36;;;7.66;100.00
11413;BME280;5762;43.256;26.960;2023-03-20T08:52:03;100162.02;;;7.72;100.00
11413;BME280;5762;43.256;26.960;2023-03-20T08:54:34;100146.94;;;7.79;100.00
11413;BME280;5762;43.256;26.960;2023-03-20T08:57:02;100142.08;;;7.63;100.00
11413;BME280;5762;43.256;26.960;2023-03-20T08:59:31;100133.20;;;7.73;100.00
11413;BME280;5762;43.256;26.960;2023-03-20T09:02:00;100122.42;;;7.78;100.00
11413;BME280;5762;43.256;26.960;2023-03-20T09:04:29;100112.41;;;8.04;100.00
11413;BME280;5762;43.256;26.960;2023-03-20T09:06:58;100105.94;;;8.10;100.00
11413;BME280;5762;43.256;26.960;2023-03-20T09:09:27;100098.40;;;8.07;100.00
11413;BME280;5762;43.256;26.960;2023-03-20T09:11:57;100079.58;;;7.94;100.00
11413;BME280;5762;43.256;26.960;2023-03-20T09:14:27;100079.78;;;8.16;100.00
11413;BME280;5762;43.256;26.960;2023-03-20T09:16:55;100063.06;;;8.19;100.00
11413;BME280;5762;43.256;26.960;2023-03-20T09:19:23;100052.55;;;8.20;100.00
11413;BME280;5762;43.256;26.960;2023-03-20T09:21:52;100048.31;;;7.88;100.00
11413;BME280;5762;43.256;26.960;2023-03-20T09:24:21;100046.59;;;8.25;100.00
11413;BME280;5762;43.256;26.960;2023-03-20T09:26:55;100032.27;;;8.40;100.00
11413;BME280;5762;43.256;26.960;2023-03-20T09:29:23;100035.16;;;8.56;100.00
11413;BME280;5762;43.256;26.960;2023-03-20T09:31:52;100026.66;;;8.81;100.00
11413;BME280;5762;43.256;26.960;2023-03-20T09:34:20;100020.16;;;8.84;100.00
11413;BME280;5762;43.256;26.960;2023-03-20T09:36:50;100009.38;;;8.82;100.00
11413;BME280;5762;43.256;26.960;2023-03-20T09:39:18;100009.87;;;8.89;100.00
11413;BME280;5762;43.256;26.960;2023-03-20T09:41:47;100006.85;;;8.98;100.00
11413;BME280;5762;43.256;26.960;2023-03-20T09:47:15;99997.88;;;9.36;100.00
11413;BME280;5762;43.256;26.960;2023-03-20T09:49:52;99993.43;;;9.51;100.00
11413;BME280;5762;43.256;26.960;2023-03-20T09:54:51;99974.06;;;9.70;100.00
11413;BME280;5762;43.256;26.960;2023-03-20T09:57:21;99972.27;;;9.84;100.00
11413;BME280;5762;43.256;26.960;2023-03-20T09:59:50;99970.58;;;9.91;100.00
11413;BME280;5762;43.256;26.960;2023-03-20T10:02:43;99966.73;;;10.21;100.00
11413;BME280;5762;43.256;26.960;2023-03-20T10:05:12;99967.61;;;10.37;100.00
11413;BME280;5762;43.256;26.960;2023-03-20T10:07:38;99958.84;;;10.43;100.00
11413;BME280;5762;43.256;26.960;2023-03-20T10:10:08;99949.14;;;10.61;100.00
11413;BME280;5762;43.256;26.960;2023-03-20T10:12:45;99944.75;;;10.81;100.00
11413;BME280;5762;43.256;26.960;2023-03-20T10:17:44;99935.73;;;11.04;100.00
11413;BME280;5762;43.256;26.960;2023-03-20T10:20:12;99928.13;;;11.20;100.00
11413;BME280;5762;43.256;26.960;2023-03-20T10:22:45;99932.02;;;11.60;100.00
11413;BME280;5762;43.256;26.960;2023-03-20T10:28:00;99912.80;;;11.87;100.00
11413;BME280;5762;43.256;26.960;2023-03-20T10:30:38;99915.86;;;11.69;100.00
11413;BME280;5762;43.256;26.960;2023-03-20T10:35:37;99904.83;;;11.93;100.00
11413;BME280;5762;43.256;26.960;2023-03-20T10:40:38;99897.69;;;12.47;100.00
11413;BME280;5762;43.256;26.960;2023-03-20T10:43:07;99892.33;;;12.78;100.00
11413;BME280;5762;43.256;26.960;2023-03-20T10:45:48;99891.31;;;12.85;100.00
11413;BME280;5762;43.256;26.960;2023-03-20T10:48:24;99891.75;;;13.00;100.00
11413;BME280;5762;43.256;26.960;2023-03-20T10:50:53;99884.22;;;13.08;100.00
11413;BME280;5762;43.256;26.960;2023-03-20T10:56:02;99875.56;;;13.49;100.00
11413;BME280;5762;43.256;26.960;2023-03-20T10:58:27;99865.47;;;13.69;100.00
11413;BME280;5762;43.256;26.960;2023-03-20T11:00:56;99857.58;;;13.87;100.00
11413;BME280;5762;43.256;26.960;2023-03-20T11:03:27;99864.52;;;14.11;100.00
11413;BME280;5762;43.256;26.960;2023-03-20T11:05:59;99858.03;;;14.09;100.00
11413;BME280;5762;43.256;26.960;2023-03-20T11:08:33;99851.06;;;14.31;100.00
11413;BME280;5762;43.256;26.960;2023-03-20T11:11:00;99849.34;;;14.44;100.00
11413;BME280;5762;43.256;26.960;2023-03-20T11:13:30;99843.39;;;14.59;100.00
11413;BME280;5762;43.256;26.960;2023-03-20T11:18:27;99836.15;;;14.89;100.00
11413;BME280;5762;43.256;26.960;2023-03-20T11:20:57;99821.20;;;14.95;100.00
11413;BME280;5762;43.256;26.960;2023-03-20T11:23:28;99818.84;;;15.08;100.00
11413;BME280;5762;43.256;26.960;2023-03-20T11:25:57;99819.34;;;15.40;100.00
11413;BME280;5762;43.256;26.960;2023-03-20T11:28:38;99815.93;;;15.52;100.00
11413;BME280;5762;43.256;26.960;2023-03-20T11:31:15;99807.48;;;15.74;100.00
11413;BME280;5762;43.256;26.960;2023-03-20T11:33:42;99806.34;;;15.90;100.00
11413;BME280;5762;43.256;26.960;2023-03-20T11:36:28;99802.44;;;16.05;100.00
11413;BME280;5762;43.256;26.960;2023-03-20T11:38:42;99795.98;;;16.37;100.00
11413;BME280;5762;43.256;26.960;2023-03-20T11:41:18;99789.70;;;16.57;100.00
11413;BME280;5762;43.256;26.960;2023-03-20T11:43:46;99792.17;;;16.50;100.00
11413;BME280;5762;43.256;26.960;2023-03-20T11:46:14;99793.48;;;16.38;100.00
11413;BME280;5762;43.256;26.960;2023-03-20T11:48:43;99793.33;;;16.55;100.00
11413;BME280;5762;43.256;26.960;2023-03-20T11:51:18;99791.31;;;16.64;100.00
11413;BME280;5762;43.256;26.960;2023-03-20T11:56:21;99787.01;;;16.69;100.00
11413;BME280;5762;43.256;26.960;2023-03-20T11:58:53;99778.17;;;16.85;100.00
11413;BME280;5762;43.256;26.960;2023-03-20T12:01:19;99776.02;;;16.90;100.00
11413;BME280;5762;43.256;26.960;2023-03-20T12:06:24;99762.49;;;17.24;100.00
11413;BME280;5762;43.256;26.960;2023-03-20T12:08:58;99765.20;;;17.55;100.00
11413;BME280;5762;43.256;26.960;2023-03-20T12:11:30;99771.02;;;17.53;100.00
11413;BME280;5762;43.256;26.960;2023-03-20T12:13:55;99762.34;;;17.63;100.00
11413;BME280;5762;43.256;26.960;2023-03-20T12:16:25;99770.09;;;17.67;100.00
11413;BME280;5762;43.256;26.960;2023-03-20T12:18:59;99762.25;;;18.06;100.00
11413;BME280;5762;43.256;26.960;2023-03-20T12:21:29;99760.52;;;18.14;100.00
11413;BME280;5762;43.256;26.960;2023-03-20T12:29:26;99763.84;;;18.69;100.00
11413;BME280;5762;43.256;26.960;2023-03-20T12:32:04;99754.34;;;19.04;100.00
11413;BME280;5762;43.256;26.960;2023-03-20T12:34:25;99749.94;;;19.09;100.00
11413;BME280;5762;43.256;26.960;2023-03-20T12:36:55;99739.50;;;19.15;100.00
11413;BME280;5762;43.256;26.960;2023-03-20T12:39:24;99735.19;;;19.39;100.00
11413;BME280;5762;43.256;26.960;2023-03-20T12:55:11;99729.94;;;19.94;100.00
11413;BME280;5762;43.256;26.960;2023-03-20T13:00:30;99726.32;;;19.71;86.76
11413;BME280;5762;43.256;26.960;2023-03-20T13:03:05;99719.08;;;19.37;88.56
11413;BME280;5762;43.256;26.960;2023-03-20T13:05:35;99720.53;;;19.66;89.69
11413;BME280;5762;43.256;26.960;2023-03-20T13:08:19;99712.16;;;19.88;92.86
11413;BME280;5762;43.256;26.960;2023-03-20T13:20:54;99700.14;;;19.42;79.62
11413;BME280;5762;43.256;26.960;2023-03-20T13:23:28;99695.28;;;19.51;78.89
11413;BME280;5762;43.256;26.960;2023-03-20T13:31:37;99689.75;;;19.67;77.00
11413;BME280;5762;43.256;26.960;2023-03-20T13:39:19;99688.42;;;20.19;69.47
11413;BME280;5762;43.256;26.960;2023-03-20T13:41:47;99686.59;;;20.36;69.68
11413;BME280;5762;43.256;26.960;2023-03-20T13:44:16;99682.63;;;20.24;66.95
11413;BME280;5762;43.256;26.960;2023-03-20T13:46:46;99681.48;;;20.15;68.30
11413;BME280;5762;43.256;26.960;2023-03-20T13:49:17;99679.89;;;20.14;65.93
11413;BME280;5762;43.256;26.960;2023-03-20T13:51:49;99670.80;;;20.52;69.21
11413;BME280;5762;43.256;26.960;2023-03-20T13:56:57;99670.90;;;20.82;63.27
11413;BME280;5762;43.256;26.960;2023-03-20T14:02:21;99670.86;;;20.56;63.72
11413;BME280;5762;43.256;26.960;2023-03-20T14:04:49;99672.97;;;20.53;61.77
11413;BME280;5762;43.256;26.960;2023-03-20T14:07:28;99670.27;;;20.24;62.22
11413;BME280;5762;43.256;26.960;2023-03-20T14:09:56;99680.31;;;20.26;61.46
11413;BME280;5762;43.256;26.960;2023-03-20T14:12:25;99675.46;;;20.29;63.40
11413;BME280;5762;43.256;26.960;2023-03-20T14:14:57;99662.52;;;20.29;60.26
11413;BME280;5762;43.256;26.960;2023-03-20T14:17:28;99656.16;;;20.25;61.13
11413;BME280;5762;43.256;26.960;2023-03-20T14:20:07;99655.41;;;20.05;62.37
11413;BME280;5762;43.256;26.960;2023-03-20T14:22:28;99653.70;;;20.39;62.29
11413;BME280;5762;43.256;26.960;2023-03-20T14:24:57;99656.62;;;20.50;62.74
11413;BME280;5762;43.256;26.960;2023-03-20T14:27:27;99649.41;;;20.65;64.95
11413;BME280;5762;43.256;26.960;2023-03-20T14:29:56;99657.84;;;20.76;62.30
11413;BME280;5762;43.256;26.960;2023-03-20T14:32:31;99653.62;;;20.95;60.10
11413;BME280;5762;43.256;26.960;2023-03-20T14:35:02;99648.70;;;20.94;58.77
11413;BME280;5762;43.256;26.960;2023-03-20T14:40:33;99654.36;;;20.79;58.23
11413;BME280;5762;43.256;26.960;2023-03-20T14:42:36;99649.89;;;20.48;57.17
11413;BME280;5762;43.256;26.960;2023-03-20T14:45:15;99647.52;;;20.46;57.70
11413;BME280;5762;43.256;26.960;2023-03-20T14:50:13;99654.64;;;20.18;58.80
11413;BME280;5762;43.256;26.960;2023-03-20T14:57:51;99644.45;;;20.19;58.77
11413;BME280;5762;43.256;26.960;2023-03-20T15:00:23;99639.03;;;20.13;57.69
11413;BME280;5762;43.256;26.960;2023-03-20T15:02:57;99639.88;;;19.84;58.77
11413;BME280;5762;43.256;26.960;2023-03-20T15:05:24;99642.47;;;19.77;58.68
11413;BME280;5762;43.256;26.960;2023-03-20T15:07:52;99638.87;;;19.54;57.95
11413;BME280;5762;43.256;26.960;2023-03-20T15:10:20;99640.13;;;19.50;57.58